AAL2897 KMIA-KDCA
Flight info
| Callsign | AAL2897 |
|---|---|
| Flight time | N/A |
| Altitude | 31000 |
| Route | FOLZZ3 ALYRA/N0470F320 GRUBR/N0471F310 Y299 SEELO GARIC RANAY TANJA WAVES CAPSS4 |
| Aircraft | B738/M-SDE2E3FGHIRWXY/LB1 |
Departure
| Time | N/A |
|---|---|
| Airport | Miami International Airport (KMIA) |
Arrival
| Time | 2026-05-06 03:10 |
|---|---|
| Airport | Ronald Reagan Washington National Airport (KDCA) |
| Time | Latitude | Longitude | Altitude | Speed | Heading |
|---|---|---|---|---|---|
| 2026-05-06 02:13 | 33.52583 | -78.03488 | 31122 ft | 438 kts | 0° |
| 2026-05-06 02:13 | 33.58627 | -78.02579 | 31115 ft | 437 kts | 0° |
| 2026-05-06 02:14 | 33.64660 | -78.01669 | 31134 ft | 437 kts | 0° |
| 2026-05-06 02:14 | 33.70686 | -78.00760 | 31116 ft | 436 kts | 0° |
| 2026-05-06 02:15 | 33.76698 | -77.99851 | 31116 ft | 435 kts | 0° |
| 2026-05-06 02:15 | 33.82692 | -77.98944 | 31119 ft | 434 kts | 0° |
| 2026-05-06 02:16 | 33.88671 | -77.98045 | 31138 ft | 432 kts | 360° |
| 2026-05-06 02:16 | 33.94651 | -77.97352 | 31126 ft | 430 kts | 358° |
| 2026-05-06 02:17 | 34.00618 | -77.96742 | 31122 ft | 430 kts | 358° |
| 2026-05-06 02:17 | 34.06582 | -77.96116 | 31117 ft | 430 kts | 358° |
| 2026-05-06 02:18 | 34.12501 | -77.95474 | 31123 ft | 429 kts | 358° |
| 2026-05-06 02:18 | 34.18439 | -77.94821 | 31129 ft | 428 kts | 358° |
| 2026-05-06 02:19 | 34.24365 | -77.94167 | 31117 ft | 427 kts | 358° |
| 2026-05-06 02:19 | 34.30274 | -77.93515 | 31121 ft | 426 kts | 358° |
| 2026-05-06 02:20 | 34.38130 | -77.92648 | 31121 ft | 425 kts | 358° |
| 2026-05-06 02:21 | 34.44037 | -77.91995 | 31122 ft | 426 kts | 358° |
| 2026-05-06 02:21 | 34.49953 | -77.91341 | 31109 ft | 427 kts | 358° |
| 2026-05-06 02:22 | 34.55886 | -77.90682 | 31110 ft | 428 kts | 358° |
| 2026-05-06 02:22 | 34.61790 | -77.90026 | 31117 ft | 429 kts | 358° |
| 2026-05-06 02:23 | 34.67737 | -77.89365 | 31128 ft | 430 kts | 358° |
| 2026-05-06 02:23 | 34.73711 | -77.88699 | 31123 ft | 431 kts | 358° |
| 2026-05-06 02:24 | 34.79693 | -77.88031 | 31117 ft | 432 kts | 358° |
| 2026-05-06 02:24 | 34.85679 | -77.87362 | 31115 ft | 432 kts | 358° |
| 2026-05-06 02:25 | 34.91672 | -77.86691 | 31129 ft | 432 kts | 358° |
| 2026-05-06 02:25 | 34.97673 | -77.86019 | 31126 ft | 433 kts | 358° |
| 2026-05-06 02:26 | 35.03673 | -77.85345 | 31113 ft | 433 kts | 358° |
| 2026-05-06 02:26 | 35.09637 | -77.84674 | 31113 ft | 433 kts | 358° |
| 2026-05-06 02:27 | 35.15641 | -77.83998 | 31116 ft | 433 kts | 358° |
| 2026-05-06 02:27 | 35.21647 | -77.83321 | 31101 ft | 433 kts | 358° |
| 2026-05-06 02:28 | 35.27652 | -77.82643 | 31101 ft | 433 kts | 358° |
| 2026-05-06 02:28 | 35.33663 | -77.81963 | 31112 ft | 433 kts | 358° |
| 2026-05-06 02:29 | 35.39669 | -77.81283 | 31111 ft | 433 kts | 359° |
| 2026-05-06 02:29 | 35.45679 | -77.80596 | 31098 ft | 434 kts | 359° |
| 2026-05-06 02:30 | 35.51682 | -77.79618 | 31094 ft | 436 kts | 1° |
| 2026-05-06 02:30 | 35.57646 | -77.78511 | 31090 ft | 436 kts | 1° |
| 2026-05-06 02:31 | 35.63648 | -77.77421 | 31090 ft | 436 kts | 1° |
| 2026-05-06 02:31 | 35.69659 | -77.76359 | 31079 ft | 436 kts | 1° |
| 2026-05-06 02:32 | 35.75671 | -77.75304 | 31068 ft | 436 kts | 1° |
| 2026-05-06 02:32 | 35.81685 | -77.74249 | 31068 ft | 437 kts | 1° |
| 2026-05-06 02:33 | 35.87697 | -77.73193 | 31100 ft | 437 kts | 1° |
| 2026-05-06 02:33 | 35.89693 | -77.72841 | 31095 ft | 437 kts | 1° |
| 2026-05-06 02:34 | 35.99765 | -77.71066 | 31083 ft | 438 kts | 1° |
| 2026-05-06 02:34 | 36.05758 | -77.70007 | 31079 ft | 438 kts | 1° |
| 2026-05-06 02:35 | 36.11796 | -77.68938 | 31098 ft | 438 kts | 1° |
| 2026-05-06 02:35 | 36.17835 | -77.67868 | 31067 ft | 439 kts | 1° |
| 2026-05-06 02:36 | 36.23886 | -77.66793 | 31064 ft | 439 kts | 1° |
| 2026-05-06 02:36 | 36.29931 | -77.65718 | 31063 ft | 439 kts | 1° |
| 2026-05-06 02:37 | 36.35983 | -77.64640 | 31076 ft | 439 kts | 1° |
| 2026-05-06 02:37 | 36.42040 | -77.63559 | 31065 ft | 439 kts | 1° |
| 2026-05-06 02:38 | 36.48050 | -77.62485 | 31063 ft | 439 kts | 1° |
| 2026-05-06 02:38 | 36.54111 | -77.61446 | 31046 ft | 439 kts | 0° |
| 2026-05-06 02:39 | 36.60164 | -77.60505 | 31080 ft | 439 kts | 0° |
| 2026-05-06 02:39 | 36.66229 | -77.59567 | 31070 ft | 439 kts | 0° |
| 2026-05-06 02:40 | 36.72296 | -77.58614 | 31062 ft | 440 kts | 1° |
| 2026-05-06 02:40 | 36.78371 | -77.57654 | 31058 ft | 440 kts | 1° |
| 2026-05-06 02:41 | 36.84447 | -77.56690 | 31064 ft | 441 kts | 1° |
| 2026-05-06 02:41 | 36.90512 | -77.55727 | 31040 ft | 441 kts | 1° |
| 2026-05-06 02:42 | 36.96611 | -77.54756 | 31018 ft | 442 kts | 1° |
| 2026-05-06 02:42 | 37.02715 | -77.53782 | 31022 ft | 442 kts | 1° |
| 2026-05-06 02:42 | 37.05780 | -77.53294 | 30657 ft | 448 kts | 1° |
| 2026-05-06 02:43 | 37.08874 | -77.52802 | 30035 ft | 447 kts | 1° |
| 2026-05-06 02:43 | 37.11950 | -77.52308 | 29466 ft | 443 kts | 1° |
| 2026-05-06 02:43 | 37.14987 | -77.51818 | 28911 ft | 438 kts | 1° |
| 2026-05-06 02:43 | 37.17995 | -77.51333 | 28404 ft | 432 kts | 1° |
| 2026-05-06 02:44 | 37.20968 | -77.50855 | 27897 ft | 427 kts | 1° |
| 2026-05-06 02:44 | 37.23903 | -77.50384 | 27383 ft | 423 kts | 1° |
| 2026-05-06 02:44 | 37.26813 | -77.49917 | 26864 ft | 420 kts | 1° |
| 2026-05-06 02:44 | 37.29660 | -77.49460 | 26391 ft | 416 kts | 1° |
| 2026-05-06 02:45 | 37.32519 | -77.49001 | 25903 ft | 413 kts | 1° |
| 2026-05-06 02:45 | 37.35360 | -77.48545 | 25422 ft | 410 kts | 1° |
| 2026-05-06 02:45 | 37.38185 | -77.48091 | 24941 ft | 408 kts | 1° |
| 2026-05-06 02:45 | 37.40990 | -77.47640 | 24474 ft | 406 kts | 2° |
| 2026-05-06 02:46 | 37.43792 | -77.47188 | 24004 ft | 404 kts | 2° |
| 2026-05-06 02:46 | 37.46570 | -77.46741 | 23503 ft | 403 kts | 2° |
| 2026-05-06 02:46 | 37.49358 | -77.46291 | 22941 ft | 403 kts | 2° |
| 2026-05-06 02:46 | 37.52128 | -77.45844 | 22446 ft | 401 kts | 2° |
| 2026-05-06 02:47 | 37.54902 | -77.45395 | 22228 ft | 402 kts | 2° |
| 2026-05-06 02:47 | 37.57690 | -77.44945 | 22047 ft | 402 kts | 2° |
| 2026-05-06 02:47 | 37.60432 | -77.44407 | 21699 ft | 399 kts | 6° |
| 2026-05-06 02:47 | 37.63132 | -77.43595 | 21312 ft | 398 kts | 9° |
| 2026-05-06 02:48 | 37.65802 | -77.42700 | 20926 ft | 396 kts | 10° |
| 2026-05-06 02:48 | 37.68423 | -77.41825 | 20548 ft | 393 kts | 9° |
| 2026-05-06 02:48 | 37.71069 | -77.40975 | 20171 ft | 392 kts | 9° |
| 2026-05-06 02:48 | 37.73719 | -77.40151 | 19799 ft | 393 kts | 9° |
| 2026-05-06 02:49 | 37.76390 | -77.39329 | 19419 ft | 396 kts | 9° |
| 2026-05-06 02:49 | 37.79067 | -77.38505 | 19033 ft | 395 kts | 9° |
| 2026-05-06 02:49 | 37.81741 | -77.37679 | 18645 ft | 394 kts | 9° |
| 2026-05-06 02:49 | 37.84402 | -77.36856 | 18243 ft | 394 kts | 9° |
| 2026-05-06 02:50 | 37.87057 | -77.36034 | 17813 ft | 392 kts | 9° |
| 2026-05-06 02:50 | 37.89670 | -77.35223 | 17421 ft | 390 kts | 9° |
| 2026-05-06 02:50 | 37.92289 | -77.34415 | 17081 ft | 386 kts | 9° |
| 2026-05-06 02:50 | 37.94900 | -77.33613 | 16699 ft | 384 kts | 9° |
| 2026-05-06 02:51 | 37.97485 | -77.32818 | 16326 ft | 382 kts | 9° |
| 2026-05-06 02:51 | 38.00069 | -77.32024 | 15942 ft | 380 kts | 9° |
| 2026-05-06 02:51 | 38.02629 | -77.31235 | 15575 ft | 379 kts | 10° |
| 2026-05-06 02:51 | 38.05191 | -77.30445 | 15208 ft | 377 kts | 10° |
| 2026-05-06 02:52 | 38.07750 | -77.29654 | 14832 ft | 376 kts | 10° |
| 2026-05-06 02:52 | 38.10285 | -77.28861 | 14470 ft | 375 kts | 11° |
| 2026-05-06 02:52 | 38.12815 | -77.28065 | 14106 ft | 374 kts | 11° |
| 2026-05-06 02:52 | 38.15303 | -77.27281 | 13745 ft | 371 kts | 11° |
| 2026-05-06 02:53 | 38.17830 | -77.26485 | 13336 ft | 368 kts | 11° |
| 2026-05-06 02:53 | 38.20274 | -77.25715 | 12985 ft | 363 kts | 11° |
| 2026-05-06 02:53 | 38.22695 | -77.24869 | 12690 ft | 358 kts | 13° |
| 2026-05-06 02:53 | 38.25068 | -77.23954 | 12398 ft | 354 kts | 14° |
| 2026-05-06 02:54 | 38.27413 | -77.23037 | 12127 ft | 352 kts | 13° |
| 2026-05-06 02:54 | 38.29754 | -77.22130 | 11829 ft | 350 kts | 14° |
| 2026-05-06 02:54 | 38.32080 | -77.21240 | 11572 ft | 350 kts | 14° |
| 2026-05-06 02:54 | 38.34430 | -77.20349 | 11315 ft | 354 kts | 13° |
| 2026-05-06 02:55 | 38.36773 | -77.19462 | 11050 ft | 355 kts | 14° |
| 2026-05-06 02:55 | 38.39124 | -77.18563 | 10927 ft | 351 kts | 14° |
| 2026-05-06 02:55 | 38.41460 | -77.17661 | 10810 ft | 349 kts | 14° |
| 2026-05-06 02:55 | 38.43782 | -77.16764 | 10710 ft | 348 kts | 13° |
| 2026-05-06 02:56 | 38.46091 | -77.15871 | 10596 ft | 347 kts | 13° |
| 2026-05-06 02:56 | 38.48404 | -77.14977 | 10476 ft | 347 kts | 13° |
| 2026-05-06 02:56 | 38.50697 | -77.14089 | 10356 ft | 339 kts | 13° |
| 2026-05-06 02:56 | 38.52926 | -77.13225 | 10233 ft | 329 kts | 13° |
| 2026-05-06 02:57 | 38.55077 | -77.12390 | 10122 ft | 317 kts | 13° |
| 2026-05-06 02:57 | 38.57156 | -77.11584 | 10017 ft | 307 kts | 13° |
| 2026-05-06 02:57 | 38.59194 | -77.10798 | 9731 ft | 305 kts | 13° |
| 2026-05-06 02:57 | 38.61223 | -77.10020 | 9429 ft | 304 kts | 12° |
| 2026-05-06 02:58 | 38.63248 | -77.09241 | 9109 ft | 303 kts | 12° |
| 2026-05-06 02:58 | 38.65264 | -77.08465 | 8822 ft | 302 kts | 13° |
| 2026-05-06 02:58 | 38.67281 | -77.07687 | 8472 ft | 302 kts | 12° |
| 2026-05-06 02:58 | 38.69278 | -77.06978 | 8166 ft | 299 kts | 5° |
| 2026-05-06 02:59 | 38.71330 | -77.06702 | 7867 ft | 295 kts | 358° |
| 2026-05-06 02:59 | 38.73374 | -77.06554 | 7572 ft | 294 kts | 358° |
| 2026-05-06 02:59 | 38.75411 | -77.06417 | 7270 ft | 291 kts | 353° |
| 2026-05-06 02:59 | 38.77321 | -77.06971 | 6999 ft | 276 kts | 328° |
| 2026-05-06 03:00 | 38.78964 | -77.08162 | 6741 ft | 269 kts | 319° |
| 2026-05-06 03:00 | 38.80521 | -77.09471 | 6474 ft | 267 kts | 318° |
| 2026-05-06 03:00 | 38.82078 | -77.10785 | 6193 ft | 268 kts | 319° |
| 2026-05-06 03:00 | 38.83605 | -77.12133 | 5912 ft | 263 kts | 312° |
| 2026-05-06 03:01 | 38.84922 | -77.13709 | 5638 ft | 258 kts | 307° |
| 2026-05-06 03:01 | 38.86178 | -77.15339 | 5394 ft | 256 kts | 306° |
| 2026-05-06 03:01 | 38.87430 | -77.16959 | 5120 ft | 256 kts | 306° |
| 2026-05-06 03:01 | 38.88708 | -77.18586 | 4800 ft | 257 kts | 307° |
| 2026-05-06 03:02 | 38.89976 | -77.20179 | 4528 ft | 255 kts | 307° |
| 2026-05-06 03:02 | 38.91253 | -77.21769 | 4152 ft | 256 kts | 308° |
| 2026-05-06 03:02 | 38.92501 | -77.23329 | 4025 ft | 248 kts | 307° |
| 2026-05-06 03:02 | 38.93677 | -77.24853 | 3986 ft | 233 kts | 302° |
| 2026-05-06 03:03 | 38.94691 | -77.26436 | 3999 ft | 227 kts | 298° |
| 2026-05-06 03:03 | 38.95652 | -77.28050 | 4025 ft | 228 kts | 297° |
| 2026-05-06 03:03 | 38.96642 | -77.29668 | 3985 ft | 233 kts | 307° |
| 2026-05-06 03:03 | 38.98083 | -77.30673 | 3988 ft | 243 kts | 341° |
| 2026-05-06 03:04 | 38.99774 | -77.30569 | 3983 ft | 249 kts | 16° |
| 2026-05-06 03:04 | 39.01225 | -77.29388 | 3814 ft | 248 kts | 50° |
| 2026-05-06 03:04 | 39.02023 | -77.27497 | 3394 ft | 238 kts | 86° |
| 2026-05-06 03:04 | 39.01991 | -77.25481 | 3112 ft | 223 kts | 110° |
| 2026-05-06 03:05 | 39.01724 | -77.23493 | 3033 ft | 223 kts | 109° |
| 2026-05-06 03:05 | 39.01468 | -77.21539 | 2999 ft | 226 kts | 109° |
| 2026-05-06 03:05 | 39.00935 | -77.19767 | 2977 ft | 199 kts | 145° |
| 2026-05-06 03:05 | 38.99891 | -77.18783 | 3021 ft | 184 kts | 156° |
| 2026-05-06 03:06 | 38.98896 | -77.17793 | 3000 ft | 176 kts | 153° |
| 2026-05-06 03:06 | 38.97961 | -77.16798 | 3005 ft | 174 kts | 152° |
| 2026-05-06 03:06 | 38.97021 | -77.15773 | 2831 ft | 178 kts | 152° |
| 2026-05-06 03:06 | 38.96085 | -77.14761 | 2579 ft | 172 kts | 152° |
| 2026-05-06 03:07 | 38.95205 | -77.13803 | 2350 ft | 160 kts | 150° |
| 2026-05-06 03:07 | 38.94388 | -77.12840 | 2219 ft | 163 kts | 158° |
| 2026-05-06 03:07 | 38.93686 | -77.12365 | 2060 ft | 172 kts | 161° |
| 2026-05-06 03:07 | 38.92685 | -77.11570 | 1604 ft | 166 kts | 156° |
| 2026-05-06 03:08 | 38.91770 | -77.10759 | 1292 ft | 147 kts | 158° |
| 2026-05-06 03:08 | 38.91027 | -77.10026 | 1502 ft | 131 kts | 149° |
| 2026-05-06 03:08 | 38.90481 | -77.08992 | 1612 ft | 154 kts | 127° |
| 2026-05-06 03:08 | 38.90085 | -77.07658 | 1323 ft | 162 kts | 118° |
| 2026-05-06 03:09 | 38.89655 | -77.06401 | 1124 ft | 147 kts | 139° |
| 2026-05-06 03:09 | 38.88955 | -77.05517 | 845 ft | 145 kts | 142° |
| 2026-05-06 03:09 | 38.88225 | -77.04632 | 533 ft | 136 kts | 142° |
| 2026-05-06 03:09 | 38.87471 | -77.04099 | 390 ft | 127 kts | 168° |
| 2026-05-06 03:10 | 38.86594 | -77.03919 | 145 ft | 126 kts | 177° |
| 2026-05-06 03:10 | 38.85753 | -77.03834 | 29 ft | 112 kts | 175° |
| 2026-05-06 03:10 | 38.85157 | -77.03779 | 24 ft | 55 kts | 175° |
| 2026-05-06 03:10 | 38.84948 | -77.03762 | 22 ft | 20 kts | 187° |
| 2026-05-06 03:11 | 38.84881 | -77.03850 | 22 ft | 10 kts | 274° |
| 2026-05-06 03:11 | 38.84933 | -77.03894 | 23 ft | 10 kts | 357° |
| 2026-05-06 03:11 | 38.85001 | -77.03901 | 23 ft | 10 kts | 355° |
| 2026-05-06 03:11 | 38.85067 | -77.03908 | 23 ft | 9 kts | 355° |
| 2026-05-06 03:12 | 38.85131 | -77.03916 | 24 ft | 9 kts | 355° |
| 2026-05-06 03:12 | 38.85193 | -77.03921 | 23 ft | 9 kts | 356° |
| 2026-05-06 03:12 | 38.85258 | -77.03927 | 23 ft | 11 kts | 355° |
| 2026-05-06 03:12 | 38.85344 | -77.03937 | 26 ft | 14 kts | 356° |
| 2026-05-06 03:13 | 38.85454 | -77.03946 | 23 ft | 18 kts | 355° |
| 2026-05-06 03:13 | 38.85551 | -77.03958 | 25 ft | 13 kts | 352° |
| 2026-05-06 03:13 | 38.85636 | -77.04016 | 25 ft | 15 kts | 322° |
| 2026-05-06 03:13 | 38.85722 | -77.04099 | 24 ft | 10 kts | 323° |
| 2026-05-06 03:14 | 38.85734 | -77.04169 | 24 ft | 10 kts | 253° |
| 2026-05-06 03:14 | 38.85693 | -77.04208 | 23 ft | 6 kts | 199° |
| 2026-05-06 03:14 | 38.85667 | -77.04221 | 25 ft | 0 kts | 200° |